Time;durP1;ratioP1;P1;durP2;ratioP2;P2;SDS_P1;SDS_P2;PMS_P1;PMS_P2;Temp;Humidity;BMP_temperature;BMP_pressure;BME280_temperature;BME280_humidity;BME280_pressure;Samples;Min_cycle;Max_cycle;Signal;HPM_P1;HPM_P2
2023/08/12 00:01:01;;;;;;;14.45;5.00;;;;;;;;;;5135733;27;20565;-64
2023/08/12 00:04:42;;;;;;;15.90;5.50;;;;;;;;;;5136713;27;20046;-65
2023/08/12 00:08:22;;;;;;;15.70;5.25;;;;;;;;;;5135768;27;20073;-64
2023/08/12 00:12:02;;;;;;;19.02;5.35;;;;;;;;;;5133460;27;20509;-66
2023/08/12 00:15:43;;;;;;;17.63;4.72;;;;;;;;;;5134691;27;20064;-66
2023/08/12 00:19:23;;;;;;;16.88;4.53;;;;;;;;;;5140701;27;20789;-65
2023/08/12 00:23:03;;;;;;;14.25;4.53;;;;;;;;;;5136782;27;20042;-64
2023/08/12 00:26:44;;;;;;;15.93;4.95;;;;;;;;;;5135381;27;20106;-64
2023/08/12 00:30:24;;;;;;;16.65;5.50;;;;;;;;;;5134263;27;20082;-66
2023/08/12 00:34:05;;;;;;;15.20;5.60;;;;;;;;;;5134975;27;20146;-66
2023/08/12 00:37:45;;;;;;;17.80;6.20;;;;;;;;;;5136030;27;20050;-65
2023/08/12 00:41:25;;;;;;;17.55;6.07;;;;;;;;;;5132617;27;20769;-66
2023/08/12 00:45:05;;;;;;;17.55;5.65;;;;;;;;;;5135157;27;20038;-64
2023/08/12 00:48:47;;;;;;;19.98;5.65;;;;;;;;;;5135924;27;20043;-65
2023/08/12 00:52:27;;;;;;;15.73;5.80;;;;;;;;;;5136558;27;20090;-65
2023/08/12 00:56:08;;;;;;;13.15;5.40;;;;;;;;;;5135117;27;20133;-64
2023/08/12 00:59:48;;;;;;;17.85;5.35;;;;;;;;;;5136224;27;20517;-65
2023/08/12 01:03:29;;;;;;;19.35;5.20;;;;;;;;;;5135028;27;20046;-65
2023/08/12 01:07:11;;;;;;;22.23;5.63;;;;;;;;;;5139332;27;20536;-66
2023/08/12 01:10:50;;;;;;;15.80;5.53;;;;;;;;;;5134638;27;20048;-65
2023/08/12 01:14:38;;;;;;;15.98;5.38;;;;;;;;;;5136704;27;20512;-65
2023/08/12 01:18:18;;;;;;;13.77;5.30;;;;;;;;;;5138234;27;20050;-64
2023/08/12 01:21:58;;;;;;;14.48;5.25;;;;;;;;;;5136030;27;20034;-64
2023/08/12 01:25:39;;;;;;;15.23;5.45;;;;;;;;;;5134129;27;20082;-64
2023/08/12 01:29:20;;;;;;;16.80;5.07;;;;;;;;;;5136604;27;20345;-64
2023/08/12 01:33:04;;;;;;;13.07;4.88;;;;;;;;;;5138771;27;20057;-63
2023/08/12 01:36:48;;;;;;;20.05;5.65;;;;;;;;;;5136186;27;20050;-67
2023/08/12 01:40:28;;;;;;;15.57;5.30;;;;;;;;;;5137601;27;20458;-63
2023/08/12 01:44:08;;;;;;;15.05;5.28;;;;;;;;;;5138228;27;20486;-65
2023/08/12 01:47:51;;;;;;;15.65;5.05;;;;;;;;;;5138131;27;20046;-65
2023/08/12 01:51:29;;;;;;;18.25;5.88;;;;;;;;;;5137462;27;20720;-65
2023/08/12 01:55:09;;;;;;;15.50;5.20;;;;;;;;;;5137843;27;20130;-65
2023/08/12 01:58:50;;;;;;;15.20;5.40;;;;;;;;;;5138220;27;20489;-65
2023/08/12 02:02:30;;;;;;;17.67;5.18;;;;;;;;;;5135940;27;20137;-66
2023/08/12 02:06:10;;;;;;;17.75;5.20;;;;;;;;;;5136802;27;20053;-64
2023/08/12 02:09:51;;;;;;;20.95;5.18;;;;;;;;;;5136829;27;20042;-63
2023/08/12 02:13:31;;;;;;;19.13;6.18;;;;;;;;;;5137822;27;20053;-65
2023/08/12 02:17:11;;;;;;;18.75;5.97;;;;;;;;;;5143095;27;20049;-65
2023/08/12 02:20:51;;;;;;;17.60;5.45;;;;;;;;;;5136826;27;20038;-63
2023/08/12 02:24:32;;;;;;;14.45;5.28;;;;;;;;;;5138447;27;20380;-65
2023/08/12 02:28:12;;;;;;;12.88;5.03;;;;;;;;;;5136841;27;20498;-65
2023/08/12 02:31:53;;;;;;;19.58;5.40;;;;;;;;;;5136482;27;20066;-65
2023/08/12 02:35:33;;;;;;;14.85;5.07;;;;;;;;;;5137649;27;20467;-66
2023/08/12 02:39:13;;;;;;;16.35;5.35;;;;;;;;;;5138453;27;20157;-65
2023/08/12 02:42:54;;;;;;;16.27;4.88;;;;;;;;;;5135956;27;20510;-64
2023/08/12 02:46:34;;;;;;;22.05;5.53;;;;;;;;;;5137224;27;20042;-65
2023/08/12 02:50:14;;;;;;;20.33;5.43;;;;;;;;;;5138668;27;20742;-64
2023/08/12 02:53:55;;;;;;;14.32;4.85;;;;;;;;;;5135763;27;20270;-64
2023/08/12 02:57:35;;;;;;;17.00;5.43;;;;;;;;;;5135540;27;20463;-65
2023/08/12 03:01:15;;;;;;;17.88;5.72;;;;;;;;;;5135241;27;20066;-64
2023/08/12 03:04:55;;;;;;;15.63;5.32;;;;;;;;;;5137658;27;20436;-66
2023/08/12 03:08:37;;;;;;;16.77;5.63;;;;;;;;;;5138492;27;20054;-64
2023/08/12 03:12:17;;;;;;;15.45;5.30;;;;;;;;;;5139584;27;20137;-65
2023/08/12 03:16:00;;;;;;;15.27;5.70;;;;;;;;;;5137484;27;20871;-65
2023/08/12 03:19:40;;;;;;;16.20;5.82;;;;;;;;;;5151362;27;20436;-65
2023/08/12 03:23:21;;;;;;;16.63;5.43;;;;;;;;;;5139057;27;20907;-65
2023/08/12 03:27:01;;;;;;;11.13;5.10;;;;;;;;;;5136086;27;20049;-64
2023/08/12 03:30:41;;;;;;;15.45;5.38;;;;;;;;;;5135255;27;22350;-67
2023/08/12 03:34:22;;;;;;;17.08;5.45;;;;;;;;;;5136821;27;20061;-65
2023/08/12 03:38:02;;;;;;;21.50;6.40;;;;;;;;;;5134466;27;20530;-65
2023/08/12 03:41:42;;;;;;;21.58;5.70;;;;;;;;;;5134009;27;20054;-64
2023/08/12 03:45:23;;;;;;;18.05;6.43;;;;;;;;;;5133617;27;20684;-64
2023/08/12 03:49:03;;;;;;;20.50;6.03;;;;;;;;;;5135113;27;20134;-67
2023/08/12 03:52:44;;;;;;;16.40;5.55;;;;;;;;;;5137274;27;20585;-65
2023/08/12 03:56:24;;;;;;;14.02;5.60;;;;;;;;;;5135068;27;20038;-64
2023/08/12 04:00:06;;;;;;;16.95;5.82;;;;;;;;;;5135609;27;20422;-65
2023/08/12 04:03:44;;;;;;;15.27;5.78;;;;;;;;;;5135527;27;20129;-65
2023/08/12 04:07:26;;;;;;;15.32;5.97;;;;;;;;;;5133708;27;20051;-66
2023/08/12 04:11:05;;;;;;;20.58;5.70;;;;;;;;;;5142709;27;20095;-65
2023/08/12 04:14:45;;;;;;;18.83;6.00;;;;;;;;;;5135187;27;20937;-64
2023/08/12 04:18:26;;;;;;;18.70;5.93;;;;;;;;;;5136361;27;20050;-64
2023/08/12 04:22:06;;;;;;;18.65;5.95;;;;;;;;;;5134870;27;20510;-64
2023/08/12 04:25:46;;;;;;;24.35;6.03;;;;;;;;;;5134576;27;20536;-64
2023/08/12 04:29:27;;;;;;;34.47;6.47;;;;;;;;;;5135927;27;20047;-64
2023/08/12 04:33:07;;;;;;;14.43;5.60;;;;;;;;;;5134711;27;20585;-65
2023/08/12 04:36:48;;;;;;;20.80;6.20;;;;;;;;;;5134290;27;20046;-64
2023/08/12 04:40:28;;;;;;;14.43;5.75;;;;;;;;;;5135472;27;20379;-64
2023/08/12 04:44:08;;;;;;;20.58;5.70;;;;;;;;;;5135421;27;20546;-65
2023/08/12 04:47:50;;;;;;;13.63;5.50;;;;;;;;;;5135536;27;20053;-64
2023/08/12 04:51:30;;;;;;;16.30;6.10;;;;;;;;;;5134572;27;20757;-64
2023/08/12 04:55:13;;;;;;;17.65;5.22;;;;;;;;;;5135041;27;20124;-64
2023/08/12 04:58:54;;;;;;;15.40;5.75;;;;;;;;;;5134225;27;20078;-64
2023/08/12 05:02:34;;;;;;;15.40;5.93;;;;;;;;;;5133664;27;20129;-65
2023/08/12 05:06:14;;;;;;;15.20;5.85;;;;;;;;;;5138329;27;20198;-64
2023/08/12 05:09:55;;;;;;;19.13;6.28;;;;;;;;;;5138022;27;20053;-64
2023/08/12 05:13:36;;;;;;;15.32;5.43;;;;;;;;;;5136835;27;20611;-64
2023/08/12 05:17:16;;;;;;;13.93;6.00;;;;;;;;;;5138629;27;20046;-64
2023/08/12 05:20:57;;;;;;;14.73;5.93;;;;;;;;;;5137823;27;20494;-63
2023/08/12 05:24:37;;;;;;;15.10;5.47;;;;;;;;;;5139809;27;20050;-63
2023/08/12 05:28:17;;;;;;;18.25;6.45;;;;;;;;;;5139002;27;21355;-65
2023/08/12 05:31:57;;;;;;;21.70;6.20;;;;;;;;;;5139296;27;20414;-65
2023/08/12 05:35:38;;;;;;;16.27;6.32;;;;;;;;;;5139711;27;20058;-65
2023/08/12 05:39:18;;;;;;;14.18;5.22;;;;;;;;;;5146992;27;20399;-64
2023/08/12 05:42:59;;;;;;;16.15;5.95;;;;;;;;;;5142484;27;20259;-65
2023/08/12 05:46:39;;;;;;;20.10;6.03;;;;;;;;;;5136658;27;20180;-65
2023/08/12 05:50:19;;;;;;;16.73;5.88;;;;;;;;;;5138000;27;20087;-65
2023/08/12 05:53:59;;;;;;;15.75;6.00;;;;;;;;;;5141778;27;20518;-65
2023/08/12 05:57:40;;;;;;;14.32;5.60;;;;;;;;;;5138653;27;20276;-64
2023/08/12 06:01:20;;;;;;;14.75;5.63;;;;;;;;;;5136567;27;20060;-66
2023/08/12 06:05:00;;;;;;;20.45;6.15;;;;;;;;;;5136180;27;20043;-64
2023/08/12 06:08:41;;;;;;;16.45;5.82;;;;;;;;;;5139084;27;20129;-66
2023/08/12 06:12:21;;;;;;;17.70;5.63;;;;;;;;;;5139576;27;20666;-65
2023/08/12 06:16:02;;;;;;;13.48;5.53;;;;;;;;;;5137221;27;20066;-65
2023/08/12 06:19:42;;;;;;;15.90;6.13;;;;;;;;;;5139086;27;20054;-65
2023/08/12 06:23:22;;;;;;;19.45;6.38;;;;;;;;;;5131264;27;20050;-66
2023/08/12 06:27:03;;;;;;;16.80;6.15;;;;;;;;;;5139236;27;20068;-65
2023/08/12 06:30:44;;;;;;;18.00;6.88;;;;;;;;;;5135048;27;20055;-65
2023/08/12 06:34:25;;;;;;;13.38;6.05;;;;;;;;;;5145814;27;20034;-65
2023/08/12 06:38:05;;;;;;;15.70;6.25;;;;;;;;;;5137935;27;20137;-65
2023/08/12 06:41:45;;;;;;;15.23;6.25;;;;;;;;;;5137149;27;20405;-66
2023/08/12 06:45:26;;;;;;;13.77;6.57;;;;;;;;;;5135853;27;20051;-66
2023/08/12 06:49:06;;;;;;;16.27;6.70;;;;;;;;;;5134399;27;20545;-65
2023/08/12 06:52:46;;;;;;;17.23;6.25;;;;;;;;;;5137557;27;20111;-66
2023/08/12 06:56:27;;;;;;;15.13;6.53;;;;;;;;;;5137149;27;20599;-65
2023/08/12 07:00:07;;;;;;;18.40;6.22;;;;;;;;;;5137537;27;20054;-69
2023/08/12 07:03:47;;;;;;;18.38;6.28;;;;;;;;;;5137281;27;20484;-67
2023/08/12 07:07:28;;;;;;;20.90;6.05;;;;;;;;;;5136246;27;20038;-66
2023/08/12 07:11:08;;;;;;;19.73;5.93;;;;;;;;;;5143043;27;20397;-66
2023/08/12 07:14:49;;;;;;;16.02;5.70;;;;;;;;;;5135421;27;20055;-66
2023/08/12 07:18:29;;;;;;;16.70;6.72;;;;;;;;;;5135095;27;20057;-67
2023/08/12 07:22:09;;;;;;;21.17;5.57;;;;;;;;;;5136381;27;20047;-66
2023/08/12 07:25:50;;;;;;;22.30;6.13;;;;;;;;;;5135398;27;20046;-67
2023/08/12 07:29:30;;;;;;;15.88;4.80;;;;;;;;;;5136558;27;20834;-66
2023/08/12 07:33:11;;;;;;;18.52;5.57;;;;;;;;;;5135584;27;20074;-66
2023/08/12 07:36:51;;;;;;;14.40;5.40;;;;;;;;;;5135352;27;20826;-67
2023/08/12 07:40:31;;;;;;;19.85;5.80;;;;;;;;;;5131584;27;20061;-65
2023/08/12 07:44:11;;;;;;;16.42;4.97;;;;;;;;;;5138158;27;20422;-64
2023/08/12 07:47:52;;;;;;;15.95;5.40;;;;;;;;;;5137606;27;20049;-64
2023/08/12 07:51:38;;;;;;;19.70;5.70;;;;;;;;;;5132583;27;20097;-66
2023/08/12 07:55:19;;;;;;;15.32;4.95;;;;;;;;;;5138163;27;20070;-68
2023/08/12 07:58:59;;;;;;;17.27;5.13;;;;;;;;;;5137187;27;20054;-68
2023/08/12 08:02:39;;;;;;;13.77;4.85;;;;;;;;;;5135528;27;20061;-66
2023/08/12 08:06:19;;;;;;;17.48;5.55;;;;;;;;;;5136335;27;20043;-65
2023/08/12 08:10:00;;;;;;;18.80;5.20;;;;;;;;;;5137613;27;20059;-67
2023/08/12 08:13:40;;;;;;;21.90;5.13;;;;;;;;;;5133071;27;20054;-65
2023/08/12 08:17:20;;;;;;;17.25;5.65;;;;;;;;;;5137144;27;20147;-67
2023/08/12 08:21:03;;;;;;;15.32;4.80;;;;;;;;;;5130452;27;20042;-64
2023/08/12 08:24:44;;;;;;;16.38;5.15;;;;;;;;;;5131399;27;20898;-66
2023/08/12 08:28:24;;;;;;;15.40;5.00;;;;;;;;;;5133855;27;20341;-67
2023/08/12 08:32:05;;;;;;;14.25;5.05;;;;;;;;;;5133237;27;20785;-66
2023/08/12 08:35:45;;;;;;;16.33;5.40;;;;;;;;;;5132134;27;20386;-68
2023/08/12 08:39:22;;;;;;;15.50;4.78;;;;;;;;;;5132573;27;20057;-65
2023/08/12 08:41:48;;;;;;;19.23;4.97;;;;;;;;;;5111832;27;20412;-68
2023/08/12 08:44:15;;;;;;;14.82;4.65;;;;;;;;;;5135233;27;20051;-70
2023/08/12 08:46:43;;;;;;;13.13;4.57;;;;;;;;;;5122773;27;20039;-68
2023/08/12 08:49:10;;;;;;;19.30;4.97;;;;;;;;;;5132833;27;20177;-67
2023/08/12 08:52:16;;;;;;;14.38;4.47;;;;;;;;;;5127372;27;20063;-67
2023/08/12 08:55:57;;;;;;;15.40;4.72;;;;;;;;;;5131577;27;20579;-68
2023/08/12 08:59:37;;;;;;;15.43;4.90;;;;;;;;;;5134138;27;20052;-68
2023/08/12 09:03:17;;;;;;;13.30;5.72;;;;;;;;;;5131915;27;20057;-65
2023/08/12 09:06:58;;;;;;;17.83;5.22;;;;;;;;;;5133507;27;20197;-67
2023/08/12 09:10:38;;;;;;;13.95;5.38;;;;;;;;;;5140884;27;20046;-68
2023/08/12 09:13:55;;;;;;;14.13;5.50;;;;;;;;;;5130899;27;20617;-68
2023/08/12 09:17:01;;;;;;;14.25;5.35;;;;;;;;;;5135226;27;20065;-65
2023/08/12 09:20:43;;;;;;;12.75;5.05;;;;;;;;;;5127508;27;20045;-68
2023/08/12 09:24:22;;;;;;;12.57;5.15;;;;;;;;;;5133736;27;20046;-69
2023/08/12 09:28:02;;;;;;;13.60;4.78;;;;;;;;;;5132616;27;20430;-67
2023/08/12 09:31:45;;;;;;;15.00;5.57;;;;;;;;;;5134508;27;20054;-74
2023/08/12 09:35:26;;;;;;;15.98;5.88;;;;;;;;;;5136620;27;20089;-65
2023/08/12 09:39:06;;;;;;;11.63;4.78;;;;;;;;;;5133464;27;20774;-67
2023/08/12 09:42:46;;;;;;;13.05;5.10;;;;;;;;;;5134570;27;20042;-68
2023/08/12 09:46:27;;;;;;;12.40;4.80;;;;;;;;;;5133980;27;20038;-68
2023/08/12 09:50:07;;;;;;;16.10;5.15;;;;;;;;;;5135370;27;20558;-69
2023/08/12 09:53:48;;;;;;;13.13;4.63;;;;;;;;;;5140504;27;20193;-69
2023/08/12 09:57:28;;;;;;;12.77;4.70;;;;;;;;;;5136372;27;20262;-71
2023/08/12 10:01:08;;;;;;;16.88;4.55;;;;;;;;;;5136643;27;20046;-68
2023/08/12 10:04:50;;;;;;;11.80;4.90;;;;;;;;;;5138652;27;20417;-67
2023/08/12 10:08:29;;;;;;;14.40;3.95;;;;;;;;;;5136384;27;20105;-65
2023/08/12 10:12:09;;;;;;;12.70;4.45;;;;;;;;;;5139697;27;20485;-69
2023/08/12 10:15:49;;;;;;;11.77;4.50;;;;;;;;;;5137683;27;20057;-70
2023/08/12 10:19:30;;;;;;;14.20;4.40;;;;;;;;;;5137653;27;20546;-67
2023/08/12 10:23:10;;;;;;;12.30;4.47;;;;;;;;;;5138513;27;20495;-68
2023/08/12 10:26:50;;;;;;;19.38;5.00;;;;;;;;;;5135604;27;20052;-70
2023/08/12 10:30:33;;;;;;;15.60;4.43;;;;;;;;;;5135539;27;20062;-66
2023/08/12 10:34:16;;;;;;;9.73;3.80;;;;;;;;;;5137973;27;20061;-66
2023/08/12 10:37:56;;;;;;;11.65;3.78;;;;;;;;;;5136813;27;20122;-69
2023/08/12 10:41:55;;;;;;;15.77;4.30;;;;;;;;;;5138671;27;20050;-66
2023/08/12 10:45:35;;;;;;;11.15;4.07;;;;;;;;;;5136427;27;20386;-69
2023/08/12 10:49:23;;;;;;;15.10;4.55;;;;;;;;;;5136157;27;20042;-71
2023/08/12 10:53:12;;;;;;;14.95;4.43;;;;;;;;;;5140590;27;20041;-69
2023/08/12 10:56:52;;;;;;;22.40;5.05;;;;;;;;;;5139780;27;20082;-72
2023/08/12 11:00:35;;;;;;;15.57;4.55;;;;;;;;;;5133012;27;20176;-67
2023/08/12 11:04:15;;;;;;;16.85;4.40;;;;;;;;;;5135003;27;20206;-68
2023/08/12 11:08:03;;;;;;;16.38;4.38;;;;;;;;;;5136061;27;20038;-65
2023/08/12 11:11:42;;;;;;;14.30;4.63;;;;;;;;;;5133705;27;20394;-66
2023/08/12 11:15:29;;;;;;;16.40;4.88;;;;;;;;;;5133595;27;20057;-65
2023/08/12 11:19:10;;;;;;;15.95;4.30;;;;;;;;;;5134971;27;20046;-66
2023/08/12 11:22:50;;;;;;;11.90;4.13;;;;;;;;;;5134721;27;20105;-66
2023/08/12 11:26:31;;;;;;;19.38;4.28;;;;;;;;;;5142351;27;20058;-66
2023/08/12 11:30:12;;;;;;;10.20;4.10;;;;;;;;;;5133573;27;20084;-67
2023/08/12 11:33:53;;;;;;;14.13;4.18;;;;;;;;;;5135209;27;20066;-67
2023/08/12 11:37:32;;;;;;;12.52;3.90;;;;;;;;;;5134655;27;20608;-68
2023/08/12 11:41:13;;;;;;;11.13;3.92;;;;;;;;;;5133644;27;20103;-67
2023/08/12 11:44:56;;;;;;;11.48;4.38;;;;;;;;;;5134568;27;20043;-68
2023/08/12 11:48:36;;;;;;;19.95;4.60;;;;;;;;;;5135218;27;20047;-65
2023/08/12 11:52:17;;;;;;;13.00;4.53;;;;;;;;;;5133126;27;20470;-66
2023/08/12 11:55:57;;;;;;;11.57;4.20;;;;;;;;;;5133618;27;20125;-65
2023/08/12 11:59:37;;;;;;;13.00;4.10;;;;;;;;;;5134106;27;20494;-67
2023/08/12 12:03:01;;;;;;;15.40;4.07;;;;;;;;;;5134382;27;20054;-67
2023/08/12 12:06:53;;;;;;;14.82;4.07;;;;;;;;;;5131724;27;20046;-65
2023/08/12 12:10:33;;;;;;;12.90;4.03;;;;;;;;;;5135977;27;20130;-67
2023/08/12 12:14:14;;;;;;;16.42;4.55;;;;;;;;;;5133683;27;20042;-66
2023/08/12 12:17:54;;;;;;;15.80;4.47;;;;;;;;;;5134047;27;20038;-66
2023/08/12 12:21:37;;;;;;;14.65;4.28;;;;;;;;;;5129308;27;20732;-65
2023/08/12 12:25:27;;;;;;;17.25;4.40;;;;;;;;;;5131637;27;20034;-67
2023/08/12 12:29:07;;;;;;;34.83;6.70;;;;;;;;;;5133003;27;20411;-69
2023/08/12 12:32:48;;;;;;;16.40;4.47;;;;;;;;;;5133833;27;20042;-66
2023/08/12 12:36:44;;;;;;;15.70;4.63;;;;;;;;;;5131368;27;20057;-66
2023/08/12 12:40:25;;;;;;;14.38;4.60;;;;;;;;;;5136109;27;20054;-67
2023/08/12 12:44:05;;;;;;;12.25;4.57;;;;;;;;;;5135678;27;20332;-67
2023/08/12 12:47:46;;;;;;;16.60;5.28;;;;;;;;;;5133836;27;20095;-68
2023/08/12 12:51:26;;;;;;;11.95;3.97;;;;;;;;;;5130761;27;20083;-69
2023/08/12 12:55:07;;;;;;;14.40;4.30;;;;;;;;;;5130755;27;20039;-67
2023/08/12 12:58:47;;;;;;;12.77;4.07;;;;;;;;;;5131234;27;20050;-68
2023/08/12 13:02:27;;;;;;;15.20;4.38;;;;;;;;;;5130955;27;20047;-68
2023/08/12 13:06:07;;;;;;;14.50;4.00;;;;;;;;;;5131950;27;20047;-69
2023/08/12 13:09:49;;;;;;;14.35;4.53;;;;;;;;;;5133065;27;20125;-69
2023/08/12 13:13:29;;;;;;;13.15;4.05;;;;;;;;;;5132417;27;23326;-69
2023/08/12 13:17:10;;;;;;;13.85;4.68;;;;;;;;;;5130447;27;20054;-68
2023/08/12 13:20:53;;;;;;;13.77;4.30;;;;;;;;;;5129044;27;20351;-68
2023/08/12 13:24:33;;;;;;;10.55;3.97;;;;;;;;;;5134828;27;20064;-70
2023/08/12 13:28:13;;;;;;;15.60;3.97;;;;;;;;;;5137400;27;20038;-67
2023/08/12 13:31:55;;;;;;;10.75;3.72;;;;;;;;;;5134394;27;20232;-70
2023/08/12 13:35:35;;;;;;;13.40;4.28;;;;;;;;;;5135011;27;20050;-69
2023/08/12 13:39:16;;;;;;;13.35;4.07;;;;;;;;;;5134607;27;20047;-68
2023/08/12 13:42:56;;;;;;;11.25;3.85;;;;;;;;;;5135277;27;20038;-67
2023/08/12 13:46:37;;;;;;;13.40;3.95;;;;;;;;;;5133728;27;20325;-68
2023/08/12 13:50:18;;;;;;;13.50;4.20;;;;;;;;;;5134850;27;20049;-69
2023/08/12 13:54:00;;;;;;;11.85;4.57;;;;;;;;;;5138020;27;20046;-67
2023/08/12 13:57:40;;;;;;;9.15;3.72;;;;;;;;;;5136933;27;20133;-69
2023/08/12 14:01:21;;;;;;;15.45;4.25;;;;;;;;;;5134939;27;20046;-65
2023/08/12 14:05:00;;;;;;;15.52;3.97;;;;;;;;;;5137887;27;20065;-68
2023/08/12 14:08:41;;;;;;;11.55;3.78;;;;;;;;;;5134437;27;20737;-67
2023/08/12 14:12:21;;;;;;;10.10;4.13;;;;;;;;;;5138534;27;20042;-66
2023/08/12 14:16:01;;;;;;;11.48;4.35;;;;;;;;;;5134480;27;20131;-72
2023/08/12 14:19:42;;;;;;;9.13;3.75;;;;;;;;;;5134858;27;20054;-66
2023/08/12 14:23:22;;;;;;;11.77;4.20;;;;;;;;;;5135829;27;20054;-64
2023/08/12 14:27:03;;;;;;;13.05;4.10;;;;;;;;;;5136549;27;20053;-72
2023/08/12 14:30:43;;;;;;;12.50;4.13;;;;;;;;;;5134596;27;20069;-66
2023/08/12 14:34:24;;;;;;;15.95;3.88;;;;;;;;;;5135642;27;20081;-65
2023/08/12 14:38:04;;;;;;;13.35;4.20;;;;;;;;;;5133256;27;20457;-67
2023/08/12 14:41:44;;;;;;;14.57;4.10;;;;;;;;;;5133380;27;20050;-65
2023/08/12 14:45:25;;;;;;;12.60;4.30;;;;;;;;;;5132487;27;20398;-65
2023/08/12 14:49:05;;;;;;;12.85;4.43;;;;;;;;;;5133765;27;20129;-63
2023/08/12 14:52:45;;;;;;;14.82;4.88;;;;;;;;;;5135643;27;20039;-66
2023/08/12 14:56:26;;;;;;;11.98;4.22;;;;;;;;;;5130413;27;20037;-68
2023/08/12 15:00:06;;;;;;;14.32;3.80;;;;;;;;;;5133713;27;20107;-67
2023/08/12 15:03:46;;;;;;;14.32;4.00;;;;;;;;;;5133956;27;20045;-68
2023/08/12 15:07:27;;;;;;;12.38;4.38;;;;;;;;;;5136594;27;20299;-65
2023/08/12 15:11:07;;;;;;;15.10;4.22;;;;;;;;;;5143396;27;20179;-65
2023/08/12 15:14:47;;;;;;;13.57;4.20;;;;;;;;;;5134959;27;20046;-66
2023/08/12 15:18:28;;;;;;;11.25;3.90;;;;;;;;;;5134018;27;20519;-66
2023/08/12 15:22:08;;;;;;;15.30;4.25;;;;;;;;;;5134464;27;20054;-67
2023/08/12 15:25:48;;;;;;;14.50;3.97;;;;;;;;;;5134991;27;20077;-66
2023/08/12 15:29:29;;;;;;;12.68;3.80;;;;;;;;;;5136045;27;20042;-67
2023/08/12 15:33:09;;;;;;;13.13;4.28;;;;;;;;;;5135435;27;20046;-70
2023/08/12 15:36:50;;;;;;;13.00;3.85;;;;;;;;;;5132389;27;20697;-69
2023/08/12 15:40:30;;;;;;;14.18;4.35;;;;;;;;;;5134724;27;20042;-72
2023/08/12 15:44:11;;;;;;;12.98;4.45;;;;;;;;;;5134754;27;20046;-70
2023/08/12 15:47:53;;;;;;;12.13;3.97;;;;;;;;;;5132268;27;20387;-70
2023/08/12 15:51:31;;;;;;;14.52;4.18;;;;;;;;;;5126577;27;20217;-71
2023/08/12 15:55:11;;;;;;;11.95;3.65;;;;;;;;;;5132067;27;20114;-68
2023/08/12 15:58:52;;;;;;;15.75;4.38;;;;;;;;;;5135187;27;20095;-69
2023/08/12 16:02:32;;;;;;;13.98;4.18;;;;;;;;;;5135601;27;20074;-69
2023/08/12 16:06:12;;;;;;;12.90;3.95;;;;;;;;;;5135908;27;20961;-71
2023/08/12 16:09:53;;;;;;;10.60;3.90;;;;;;;;;;5136312;27;20054;-73
2023/08/12 16:13:33;;;;;;;11.00;3.85;;;;;;;;;;5136266;27;20549;-68
2023/08/12 16:17:13;;;;;;;13.90;4.30;;;;;;;;;;5134773;27;20111;-68
2023/08/12 16:20:54;;;;;;;12.32;4.05;;;;;;;;;;5134641;27;20268;-71
2023/08/12 16:24:34;;;;;;;11.68;4.07;;;;;;;;;;5136193;27;20349;-69
2023/08/12 16:28:14;;;;;;;15.98;3.88;;;;;;;;;;5135600;27;20137;-67
2023/08/12 16:31:55;;;;;;;11.52;4.05;;;;;;;;;;5137260;27;20047;-67
2023/08/12 16:35:35;;;;;;;12.60;4.20;;;;;;;;;;5128999;27;20145;-67
2023/08/12 16:39:16;;;;;;;12.40;4.50;;;;;;;;;;5134804;27;20051;-65
2023/08/12 16:42:56;;;;;;;15.73;4.07;;;;;;;;;;5134860;27;20049;-65
2023/08/12 16:46:36;;;;;;;12.05;4.00;;;;;;;;;;5134321;27;20133;-65
2023/08/12 16:50:16;;;;;;;15.68;4.03;;;;;;;;;;5133452;27;20059;-67
2023/08/12 16:53:57;;;;;;;11.40;4.00;;;;;;;;;;5133318;27;20514;-69
2023/08/12 16:57:37;;;;;;;10.25;3.70;;;;;;;;;;5134451;27;20043;-70
2023/08/12 17:01:17;;;;;;;14.98;4.28;;;;;;;;;;5138180;27;20481;-69
2023/08/12 17:04:58;;;;;;;13.85;4.32;;;;;;;;;;5139111;27;20042;-76
2023/08/12 17:08:39;;;;;;;17.60;4.25;;;;;;;;;;5138717;27;20378;-74
2023/08/12 17:12:21;;;;;;;12.75;3.97;;;;;;;;;;5143120;27;20095;-71
2023/08/12 17:16:01;;;;;;;17.48;4.78;;;;;;;;;;5135750;27;20062;-73
2023/08/12 17:19:18;;;;;;;16.95;4.47;;;;;;;;;;5139492;27;20042;-71
2023/08/12 17:22:44;;;;;;;16.13;4.60;;;;;;;;;;5139884;27;20042;-69
2023/08/12 17:26:24;;;;;;;13.68;4.05;;;;;;;;;;5134598;27;20477;-72
2023/08/12 17:30:06;;;;;;;15.60;4.20;;;;;;;;;;5138573;27;20685;-69
2023/08/12 17:33:46;;;;;;;13.35;4.25;;;;;;;;;;5137871;27;20686;-69
2023/08/12 17:37:26;;;;;;;15.40;4.30;;;;;;;;;;5140722;27;20050;-70
2023/08/12 17:41:06;;;;;;;14.55;4.05;;;;;;;;;;5135689;27;20050;-72
2023/08/12 17:44:47;;;;;;;14.48;4.20;;;;;;;;;;5138937;27;20408;-71
2023/08/12 17:48:36;;;;;;;14.38;4.28;;;;;;;;;;5134742;27;20073;-71
2023/08/12 17:52:16;;;;;;;13.85;4.20;;;;;;;;;;5134789;27;20382;-71
2023/08/12 17:55:58;;;;;;;10.27;3.70;;;;;;;;;;5133807;27;20046;-73
2023/08/12 17:59:38;;;;;;;12.93;4.15;;;;;;;;;;5137519;27;20039;-71
2023/08/12 18:03:19;;;;;;;16.95;3.97;;;;;;;;;;5136752;27;20071;-72
2023/08/12 18:06:59;;;;;;;10.57;4.00;;;;;;;;;;5135047;27;20306;-71
2023/08/12 18:10:39;;;;;;;11.07;4.32;;;;;;;;;;5140120;27;20422;-71
2023/08/12 18:14:21;;;;;;;14.38;4.45;;;;;;;;;;5138960;27;20648;-70
2023/08/12 18:18:01;;;;;;;11.90;4.30;;;;;;;;;;5141230;27;20349;-71
2023/08/12 18:21:40;;;;;;;11.88;4.40;;;;;;;;;;5137531;27;20417;-72
2023/08/12 18:25:21;;;;;;;23.10;4.63;;;;;;;;;;5135761;27;20943;-70
2023/08/12 18:29:01;;;;;;;14.65;4.50;;;;;;;;;;5136414;27;20526;-71
2023/08/12 18:32:41;;;;;;;14.05;4.32;;;;;;;;;;5093054;27;20163;-72
2023/08/12 18:36:03;;;;;;;17.00;4.65;;;;;;;;;;5093356;27;20039;-74
2023/08/12 18:39:09;;;;;;;15.85;3.78;;;;;;;;;;5108728;27;20055;-72
2023/08/12 18:42:49;;;;;;;12.45;4.47;;;;;;;;;;5095734;27;20059;-71
2023/08/12 18:46:30;;;;;;;14.23;4.25;;;;;;;;;;5093446;27;20081;-71
2023/08/12 18:49:30;;;;;;;18.30;4.18;;;;;;;;;;5094516;27;20054;-69
2023/08/12 18:52:56;;;;;;;14.48;4.38;;;;;;;;;;5095802;27;20053;-71
2023/08/12 18:56:38;;;;;;;15.40;4.30;;;;;;;;;;5091853;27;20044;-68
2023/08/12 19:00:19;;;;;;;13.25;4.43;;;;;;;;;;5093107;27;21187;-70
2023/08/12 19:03:59;;;;;;;14.75;3.88;;;;;;;;;;5095070;27;20039;-68
2023/08/12 19:07:41;;;;;;;13.88;4.38;;;;;;;;;;5093309;27;20578;-72
2023/08/12 19:11:22;;;;;;;23.02;5.00;;;;;;;;;;5095367;27;20443;-74
2023/08/12 19:15:02;;;;;;;15.00;4.68;;;;;;;;;;5096046;27;20437;-71
2023/08/12 19:18:42;;;;;;;16.65;3.95;;;;;;;;;;5095436;27;20051;-67
2023/08/12 19:22:22;;;;;;;12.02;3.90;;;;;;;;;;5094627;27;20047;-68
2023/08/12 19:26:02;;;;;;;12.52;3.72;;;;;;;;;;5093299;27;20044;-70
2023/08/12 19:29:43;;;;;;;14.40;4.30;;;;;;;;;;5096196;27;20035;-71
2023/08/12 19:33:29;;;;;;;12.50;4.18;;;;;;;;;;5098543;27;20042;-72
2023/08/12 19:37:10;;;;;;;12.20;3.70;;;;;;;;;;5101215;27;20070;-70
2023/08/12 19:40:51;;;;;;;17.20;4.60;;;;;;;;;;5098805;27;20212;-66
2023/08/12 19:44:30;;;;;;;12.55;4.03;;;;;;;;;;5100421;27;20447;-71
2023/08/12 19:48:11;;;;;;;8.60;4.07;;;;;;;;;;5098097;27;20456;-69
2023/08/12 19:51:51;;;;;;;14.18;4.43;;;;;;;;;;5098970;27;20435;-69
2023/08/12 19:55:31;;;;;;;11.43;4.75;;;;;;;;;;5096202;27;20125;-70
2023/08/12 19:59:12;;;;;;;13.15;4.50;;;;;;;;;;5099893;27;20765;-70
2023/08/12 20:02:52;;;;;;;13.23;4.90;;;;;;;;;;5098999;27;20055;-67
2023/08/12 20:06:32;;;;;;;13.32;4.35;;;;;;;;;;5100285;27;20044;-66
2023/08/12 20:10:13;;;;;;;16.40;4.93;;;;;;;;;;5099240;27;20505;-68
2023/08/12 20:13:53;;;;;;;17.02;5.22;;;;;;;;;;5101359;27;20054;-68
2023/08/12 20:17:33;;;;;;;15.88;4.63;;;;;;;;;;5095315;27;20766;-70
2023/08/12 20:21:14;;;;;;;14.52;4.35;;;;;;;;;;5097091;27;20091;-68
2023/08/12 20:24:54;;;;;;;11.93;4.47;;;;;;;;;;5099318;27;21231;-72
2023/08/12 20:28:35;;;;;;;14.73;4.55;;;;;;;;;;5100501;27;20053;-70
2023/08/12 20:32:15;;;;;;;12.20;4.65;;;;;;;;;;5129149;27;20538;-67
2023/08/12 20:35:55;;;;;;;13.10;4.75;;;;;;;;;;5132198;27;20565;-70
2023/08/12 20:39:36;;;;;;;18.85;5.38;;;;;;;;;;5134110;27;20296;-69
2023/08/12 20:43:16;;;;;;;11.93;4.47;;;;;;;;;;5135979;27;20594;-68
2023/08/12 20:46:56;;;;;;;16.17;4.10;;;;;;;;;;5141124;27;20038;-70
2023/08/12 20:50:37;;;;;;;13.35;3.92;;;;;;;;;;5135350;27;20739;-67
2023/08/12 20:54:18;;;;;;;12.02;4.22;;;;;;;;;;5135718;27;20046;-72
2023/08/12 20:57:58;;;;;;;12.18;4.05;;;;;;;;;;5135126;27;20050;-63
2023/08/12 21:01:38;;;;;;;12.23;3.97;;;;;;;;;;5133420;27;20401;-66
2023/08/12 21:05:19;;;;;;;10.07;3.78;;;;;;;;;;5125756;27;20050;-70
2023/08/12 21:08:59;;;;;;;15.00;3.85;;;;;;;;;;5131727;27;21646;-67
2023/08/12 21:12:39;;;;;;;14.40;3.80;;;;;;;;;;5144310;27;20115;-68
2023/08/12 21:16:20;;;;;;;12.93;4.20;;;;;;;;;;5136693;27;20034;-68
2023/08/12 21:20:00;;;;;;;9.20;3.67;;;;;;;;;;5133704;27;20053;-70
2023/08/12 21:23:40;;;;;;;11.90;3.65;;;;;;;;;;5132028;27;20833;-66
2023/08/12 21:27:21;;;;;;;12.63;4.40;;;;;;;;;;5130535;27;20050;-65
2023/08/12 21:31:01;;;;;;;9.57;3.60;;;;;;;;;;5132206;27;20051;-66
2023/08/12 21:34:42;;;;;;;14.25;4.03;;;;;;;;;;5133873;27;20501;-66